sensor_id;sensor_type;location;lat;lon;timestamp;P1;P2;P0
44933;PMS3003;30667;43.614;1.442;2023-02-25T00:01:59;31.00;27.60;18.00
44933;PMS3003;30667;43.614;1.442;2023-02-25T00:04:28;36.75;33.25;21.00
44933;PMS3003;30667;43.614;1.442;2023-02-25T00:06:54;33.80;31.00;19.60
44933;PMS3003;30667;43.614;1.442;2023-02-25T00:09:19;36.50;33.75;23.00
44933;PMS3003;30667;43.614;1.442;2023-02-25T00:11:45;33.50;31.75;21.75
44933;PMS3003;30667;43.614;1.442;2023-02-25T00:14:10;51.50;44.75;28.00
44933;PMS3003;30667;43.614;1.442;2023-02-25T00:16:36;145.25;110.00;58.50
44933;PMS3003;30667;43.614;1.442;2023-02-25T00:19:01;80.67;62.67;39.67
44933;PMS3003;30667;43.614;1.442;2023-02-25T00:21:27;55.60;43.40;28.80
44933;PMS3003;30667;43.614;1.442;2023-02-25T00:23:53;41.50;37.00;25.25
44933;PMS3003;30667;43.614;1.442;2023-02-25T00:26:20;35.80;35.80;24.00
44933;PMS3003;30667;43.614;1.442;2023-02-25T00:28:46;39.60;35.00;23.40
44933;PMS3003;30667;43.614;1.442;2023-02-25T00:31:16;37.80;34.00;22.00
44933;PMS3003;30667;43.614;1.442;2023-02-25T00:33:43;42.40;37.80;23.20
44933;PMS3003;30667;43.614;1.442;2023-02-25T00:36:13;39.25;36.25;23.75
44933;PMS3003;30667;43.614;1.442;2023-02-25T00:38:43;46.80;39.20;24.00
44933;PMS3003;30667;43.614;1.442;2023-02-25T00:41:12;37.60;36.80;23.00
44933;PMS3003;30667;43.614;1.442;2023-02-25T00:43:40;37.40;33.40;23.00
44933;PMS3003;30667;43.614;1.442;2023-02-25T00:46:07;34.40;30.00;21.60
44933;PMS3003;30667;43.614;1.442;2023-02-25T00:48:34;41.00;35.20;23.60
44933;PMS3003;30667;43.614;1.442;2023-02-25T00:51:03;39.20;35.60;24.00
44933;PMS3003;30667;43.614;1.442;2023-02-25T00:53:30;43.80;36.40;23.80
44933;PMS3003;30667;43.614;1.442;2023-02-25T00:56:01;37.25;35.25;23.00
44933;PMS3003;30667;43.614;1.442;2023-02-25T00:58:27;37.80;35.00;22.60
44933;PMS3003;30667;43.614;1.442;2023-02-25T01:00:53;42.75;34.25;22.75
44933;PMS3003;30667;43.614;1.442;2023-02-25T01:03:18;36.00;35.00;23.25
44933;PMS3003;30667;43.614;1.442;2023-02-25T01:05:44;46.25;35.00;23.00
44933;PMS3003;30667;43.614;1.442;2023-02-25T01:08:14;37.80;35.60;23.60
44933;PMS3003;30667;43.614;1.442;2023-02-25T01:10:41;36.80;35.60;23.40
44933;PMS3003;30667;43.614;1.442;2023-02-25T01:13:07;41.50;38.50;25.25
44933;PMS3003;30667;43.614;1.442;2023-02-25T01:15:32;37.00;35.00;22.75
44933;PMS3003;30667;43.614;1.442;2023-02-25T01:17:58;44.25;38.50;24.00
44933;PMS3003;30667;43.614;1.442;2023-02-25T01:20:23;47.00;42.25;25.75
44933;PMS3003;30667;43.614;1.442;2023-02-25T01:22:48;40.75;38.00;25.25
44933;PMS3003;30667;43.614;1.442;2023-02-25T01:25:14;48.50;38.50;25.75
44933;PMS3003;30667;43.614;1.442;2023-02-25T01:27:41;43.00;38.80;26.20
44933;PMS3003;30667;43.614;1.442;2023-02-25T01:30:07;45.40;42.20;27.80
44933;PMS3003;30667;43.614;1.442;2023-02-25T01:32:35;44.60;41.00;28.80
44933;PMS3003;30667;43.614;1.442;2023-02-25T01:35:00;39.00;37.00;25.50
44933;PMS3003;30667;43.614;1.442;2023-02-25T01:37:26;45.25;36.75;23.00
44933;PMS3003;30667;43.614;1.442;2023-02-25T01:39:51;42.75;37.00;23.75
44933;PMS3003;30667;43.614;1.442;2023-02-25T01:42:17;43.25;40.50;25.00
44933;PMS3003;30667;43.614;1.442;2023-02-25T01:47:42;42.80;39.00;24.60
44933;PMS3003;30667;43.614;1.442;2023-02-25T01:50:12;46.40;38.80;24.20
44933;PMS3003;30667;43.614;1.442;2023-02-25T01:52:38;42.75;35.75;22.00
44933;PMS3003;30667;43.614;1.442;2023-02-25T01:55:05;40.20;34.60;23.00
44933;PMS3003;30667;43.614;1.442;2023-02-25T01:57:34;38.80;35.40;23.00
44933;PMS3003;30667;43.614;1.442;2023-02-25T02:00:01;48.00;40.20;23.60
44933;PMS3003;30667;43.614;1.442;2023-02-25T02:02:36;41.20;39.40;23.00
44933;PMS3003;30667;43.614;1.442;2023-02-25T02:05:02;42.20;36.60;24.40
44933;PMS3003;30667;43.614;1.442;2023-02-25T02:07:29;43.20;38.60;24.40
44933;PMS3003;30667;43.614;1.442;2023-02-25T02:09:55;45.00;38.25;24.75
44933;PMS3003;30667;43.614;1.442;2023-02-25T02:12:24;42.00;39.00;27.75
44933;PMS3003;30667;43.614;1.442;2023-02-25T02:14:53;42.20;36.60;23.80
44933;PMS3003;30667;43.614;1.442;2023-02-25T02:46:56;29.80;29.40;18.60
44933;PMS3003;30667;43.614;1.442;2023-02-25T02:52:04;29.60;27.40;18.20
44933;PMS3003;30667;43.614;1.442;2023-02-25T02:54:39;29.60;29.40;17.80
44933;PMS3003;30667;43.614;1.442;2023-02-25T02:57:08;34.80;30.20;17.80
44933;PMS3003;30667;43.614;1.442;2023-02-25T02:59:37;30.00;28.40;18.00
44933;PMS3003;30667;43.614;1.442;2023-02-25T03:02:49;33.60;27.80;16.00
44933;PMS3003;30667;43.614;1.442;2023-02-25T03:04:59;30.00;29.60;18.20
44933;PMS3003;30667;43.614;1.442;2023-02-25T03:07:29;30.40;26.60;17.80
44933;PMS3003;30667;43.614;1.442;2023-02-25T03:10:00;30.40;28.40;18.20
44933;PMS3003;30667;43.614;1.442;2023-02-25T03:12:29;31.80;28.60;18.20
44933;PMS3003;30667;43.614;1.442;2023-02-25T03:14:55;31.75;28.50;16.25
44933;PMS3003;30667;43.614;1.442;2023-02-25T03:17:23;30.25;28.25;18.50
44933;PMS3003;30667;43.614;1.442;2023-02-25T03:22:40;27.20;25.80;18.00
44933;PMS3003;30667;43.614;1.442;2023-02-25T03:27:46;34.20;32.00;19.00
44933;PMS3003;30667;43.614;1.442;2023-02-25T03:33:04;32.80;29.80;18.20
44933;PMS3003;30667;43.614;1.442;2023-02-25T03:35:35;32.80;28.60;16.40
44933;PMS3003;30667;43.614;1.442;2023-02-25T03:38:07;32.40;27.00;18.60
44933;PMS3003;30667;43.614;1.442;2023-02-25T03:40:36;25.80;24.80;16.00
44933;PMS3003;30667;43.614;1.442;2023-02-25T03:43:12;25.60;22.80;16.00
44933;PMS3003;30667;43.614;1.442;2023-02-25T03:45:40;29.20;25.20;14.20
44933;PMS3003;30667;43.614;1.442;2023-02-25T03:48:10;29.00;24.80;16.00
44933;PMS3003;30667;43.614;1.442;2023-02-25T03:50:42;26.80;23.80;16.20
44933;PMS3003;30667;43.614;1.442;2023-02-25T03:53:12;28.60;28.40;15.80
44933;PMS3003;30667;43.614;1.442;2023-02-25T03:55:38;32.25;26.75;16.00
44933;PMS3003;30667;43.614;1.442;2023-02-25T03:58:06;33.40;26.40;15.00
44933;PMS3003;30667;43.614;1.442;2023-02-25T04:00:32;25.80;25.60;16.00
44933;PMS3003;30667;43.614;1.442;2023-02-25T04:02:58;29.50;25.50;16.25
44933;PMS3003;30667;43.614;1.442;2023-02-25T04:05:24;33.00;27.25;16.00
44933;PMS3003;30667;43.614;1.442;2023-02-25T04:07:53;30.40;27.80;16.00
44933;PMS3003;30667;43.614;1.442;2023-02-25T04:10:19;29.40;24.80;15.00
44933;PMS3003;30667;43.614;1.442;2023-02-25T04:12:45;28.40;25.40;16.00
44933;PMS3003;30667;43.614;1.442;2023-02-25T04:15:11;31.50;28.75;17.25
44933;PMS3003;30667;43.614;1.442;2023-02-25T04:17:39;33.20;28.40;17.80
44933;PMS3003;30667;43.614;1.442;2023-02-25T04:20:05;30.00;26.80;18.00
44933;PMS3003;30667;43.614;1.442;2023-02-25T04:22:31;30.50;26.75;16.75
44933;PMS3003;30667;43.614;1.442;2023-02-25T04:24:57;29.60;26.80;16.80
44933;PMS3003;30667;43.614;1.442;2023-02-25T04:27:22;33.00;27.75;18.00
44933;PMS3003;30667;43.614;1.442;2023-02-25T04:29:48;30.00;26.25;17.25
44933;PMS3003;30667;43.614;1.442;2023-02-25T04:32:13;28.75;26.00;16.75
44933;PMS3003;30667;43.614;1.442;2023-02-25T04:34:39;27.75;26.50;18.00
44933;PMS3003;30667;43.614;1.442;2023-02-25T04:37:04;35.50;29.00;18.75
44933;PMS3003;30667;43.614;1.442;2023-02-25T04:39:30;33.50;31.25;20.25
44933;PMS3003;30667;43.614;1.442;2023-02-25T04:41:56;35.20;31.80;20.80
44933;PMS3003;30667;43.614;1.442;2023-02-25T04:44:23;36.00;31.60;20.20
44933;PMS3003;30667;43.614;1.442;2023-02-25T04:46:48;43.75;37.50;23.75
44933;PMS3003;30667;43.614;1.442;2023-02-25T04:49:16;39.40;37.00;23.40
44933;PMS3003;30667;43.614;1.442;2023-02-25T04:51:42;45.60;40.60;25.80
44933;PMS3003;30667;43.614;1.442;2023-02-25T04:54:08;52.20;46.20;27.60
44933;PMS3003;30667;43.614;1.442;2023-02-25T04:56:34;48.80;45.20;29.80
44933;PMS3003;30667;43.614;1.442;2023-02-25T04:59:00;46.20;42.40;27.80
44933;PMS3003;30667;43.614;1.442;2023-02-25T05:01:26;53.75;45.50;29.00
44933;PMS3003;30667;43.614;1.442;2023-02-25T05:03:52;58.00;45.80;27.40
44933;PMS3003;30667;43.614;1.442;2023-02-25T05:06:21;43.20;40.00;26.60
44933;PMS3003;30667;43.614;1.442;2023-02-25T05:08:48;45.00;40.20;26.00
44933;PMS3003;30667;43.614;1.442;2023-02-25T05:11:15;42.80;41.80;27.40
44933;PMS3003;30667;43.614;1.442;2023-02-25T05:13:41;47.00;39.60;24.40
44933;PMS3003;30667;43.614;1.442;2023-02-25T05:16:08;42.00;39.50;26.50
44933;PMS3003;30667;43.614;1.442;2023-02-25T05:18:36;50.80;45.00;28.20
44933;PMS3003;30667;43.614;1.442;2023-02-25T05:21:02;52.80;46.80;30.60
44933;PMS3003;30667;43.614;1.442;2023-02-25T05:23:28;63.25;49.75;31.75
44933;PMS3003;30667;43.614;1.442;2023-02-25T05:25:53;55.00;47.25;31.00
44933;PMS3003;30667;43.614;1.442;2023-02-25T05:28:21;57.00;50.20;31.20
44933;PMS3003;30667;43.614;1.442;2023-02-25T05:30:47;58.00;50.25;31.25
44933;PMS3003;30667;43.614;1.442;2023-02-25T05:33:12;49.75;47.00;31.25
44933;PMS3003;30667;43.614;1.442;2023-02-25T05:35:38;45.75;44.50;30.00
44933;PMS3003;30667;43.614;1.442;2023-02-25T05:38:04;54.40;49.20;30.00
44933;PMS3003;30667;43.614;1.442;2023-02-25T05:40:30;52.75;47.00;31.00
44933;PMS3003;30667;43.614;1.442;2023-02-25T05:42:56;51.20;46.40;29.00
44933;PMS3003;30667;43.614;1.442;2023-02-25T05:45:21;57.00;45.50;29.50
44933;PMS3003;30667;43.614;1.442;2023-02-25T05:47:46;52.00;43.25;30.50
44933;PMS3003;30667;43.614;1.442;2023-02-25T05:50:12;52.75;47.00;28.00
44933;PMS3003;30667;43.614;1.442;2023-02-25T05:52:37;48.50;41.75;27.00
44933;PMS3003;30667;43.614;1.442;2023-02-25T05:55:03;49.25;45.50;29.50
44933;PMS3003;30667;43.614;1.442;2023-02-25T05:57:29;51.20;45.40;29.00
44933;PMS3003;30667;43.614;1.442;2023-02-25T05:59:54;54.25;47.00;30.25
44933;PMS3003;30667;43.614;1.442;2023-02-25T06:02:20;51.00;44.75;29.50
44933;PMS3003;30667;43.614;1.442;2023-02-25T06:04:51;53.25;46.25;28.75
44933;PMS3003;30667;43.614;1.442;2023-02-25T06:07:27;55.20;48.60;30.80
44933;PMS3003;30667;43.614;1.442;2023-02-25T06:09:57;53.40;47.00;30.00
44933;PMS3003;30667;43.614;1.442;2023-02-25T06:12:25;55.80;48.40;30.80
44933;PMS3003;30667;43.614;1.442;2023-02-25T06:14:55;58.40;49.40;31.20
44933;PMS3003;30667;43.614;1.442;2023-02-25T06:17:21;52.00;45.80;30.80
44933;PMS3003;30667;43.614;1.442;2023-02-25T06:19:49;51.20;46.00;29.00
44933;PMS3003;30667;43.614;1.442;2023-02-25T06:22:15;52.40;47.80;30.80
44933;PMS3003;30667;43.614;1.442;2023-02-25T06:24:41;49.40;45.20;28.40
44933;PMS3003;30667;43.614;1.442;2023-02-25T06:27:07;49.50;45.50;31.00
44933;PMS3003;30667;43.614;1.442;2023-02-25T06:29:32;52.75;46.00;28.00
44933;PMS3003;30667;43.614;1.442;2023-02-25T06:32:01;45.75;40.25;28.00
44933;PMS3003;30667;43.614;1.442;2023-02-25T06:34:32;47.00;41.60;27.80
44933;PMS3003;30667;43.614;1.442;2023-02-25T06:36:58;43.00;39.80;27.20
44933;PMS3003;30667;43.614;1.442;2023-02-25T06:39:27;40.00;39.00;24.20
44933;PMS3003;30667;43.614;1.442;2023-02-25T06:41:53;42.40;36.00;24.80
44933;PMS3003;30667;43.614;1.442;2023-02-25T06:44:19;37.25;33.75;23.00
44933;PMS3003;30667;43.614;1.442;2023-02-25T06:46:50;40.50;36.25;23.00
44933;PMS3003;30667;43.614;1.442;2023-02-25T06:49:19;37.80;34.80;23.00
44933;PMS3003;30667;43.614;1.442;2023-02-25T06:51:45;39.00;34.80;21.20
44933;PMS3003;30667;43.614;1.442;2023-02-25T06:54:11;42.00;37.80;25.20
44933;PMS3003;30667;43.614;1.442;2023-02-25T06:56:37;45.50;39.25;24.25
44933;PMS3003;30667;43.614;1.442;2023-02-25T06:59:02;40.25;36.00;21.00
44933;PMS3003;30667;43.614;1.442;2023-02-25T07:01:28;46.75;39.75;25.75
44933;PMS3003;30667;43.614;1.442;2023-02-25T07:03:54;48.00;39.00;26.00
44933;PMS3003;30667;43.614;1.442;2023-02-25T07:06:20;48.50;43.25;26.25
44933;PMS3003;30667;43.614;1.442;2023-02-25T07:08:45;43.25;39.25;26.75
44933;PMS3003;30667;43.614;1.442;2023-02-25T07:11:12;41.25;39.50;25.25
44933;PMS3003;30667;43.614;1.442;2023-02-25T07:13:49;42.80;38.20;24.20
44933;PMS3003;30667;43.614;1.442;2023-02-25T07:16:15;47.80;42.80;27.60
44933;PMS3003;30667;43.614;1.442;2023-02-25T07:18:41;45.40;40.20;23.60
44933;PMS3003;30667;43.614;1.442;2023-02-25T07:21:06;46.00;38.50;24.75
44933;PMS3003;30667;43.614;1.442;2023-02-25T07:23:32;47.50;45.00;24.75
44933;PMS3003;30667;43.614;1.442;2023-02-25T07:26:01;54.25;44.50;27.75
44933;PMS3003;30667;43.614;1.442;2023-02-25T07:28:31;48.00;42.60;27.60
44933;PMS3003;30667;43.614;1.442;2023-02-25T07:31:00;42.50;40.00;24.75
44933;PMS3003;30667;43.614;1.442;2023-02-25T07:33:27;44.80;42.20;26.20
44933;PMS3003;30667;43.614;1.442;2023-02-25T07:35:54;46.40;40.00;25.00
44933;PMS3003;30667;43.614;1.442;2023-02-25T07:38:19;46.80;42.80;25.80
44933;PMS3003;30667;43.614;1.442;2023-02-25T07:40:45;47.00;40.50;26.50
44933;PMS3003;30667;43.614;1.442;2023-02-25T07:43:10;49.00;41.25;25.00
44933;PMS3003;30667;43.614;1.442;2023-02-25T07:45:36;45.75;42.00;28.00
44933;PMS3003;30667;43.614;1.442;2023-02-25T07:48:01;42.75;37.25;25.00
44933;PMS3003;30667;43.614;1.442;2023-02-25T07:50:26;50.25;42.25;27.50
44933;PMS3003;30667;43.614;1.442;2023-02-25T07:52:52;44.50;40.00;27.00
44933;PMS3003;30667;43.614;1.442;2023-02-25T07:55:17;48.25;42.75;25.00
44933;PMS3003;30667;43.614;1.442;2023-02-25T07:57:43;51.50;42.50;26.25
44933;PMS3003;30667;43.614;1.442;2023-02-25T08:00:08;45.50;40.50;27.75
44933;PMS3003;30667;43.614;1.442;2023-02-25T08:02:35;55.00;44.40;26.00
44933;PMS3003;30667;43.614;1.442;2023-02-25T08:05:01;47.60;43.80;26.60
44933;PMS3003;30667;43.614;1.442;2023-02-25T08:07:27;50.25;43.75;27.00
44933;PMS3003;30667;43.614;1.442;2023-02-25T08:09:54;43.00;39.20;24.60
44933;PMS3003;30667;43.614;1.442;2023-02-25T08:12:19;42.25;39.00;25.50
44933;PMS3003;30667;43.614;1.442;2023-02-25T08:14:45;37.75;35.00;23.00
44933;PMS3003;30667;43.614;1.442;2023-02-25T08:17:10;39.75;37.75;25.50
44933;PMS3003;30667;43.614;1.442;2023-02-25T08:19:37;40.00;35.60;24.80
44933;PMS3003;30667;43.614;1.442;2023-02-25T08:22:02;48.25;43.00;27.50
44933;PMS3003;30667;43.614;1.442;2023-02-25T08:24:28;43.80;40.60;25.20
44933;PMS3003;30667;43.614;1.442;2023-02-25T08:26:54;44.50;40.25;25.75
44933;PMS3003;30667;43.614;1.442;2023-02-25T08:29:19;41.75;38.50;24.50
44933;PMS3003;30667;43.614;1.442;2023-02-25T08:31:45;42.50;41.25;25.00
44933;PMS3003;30667;43.614;1.442;2023-02-25T08:34:11;53.75;45.50;27.75
44933;PMS3003;30667;43.614;1.442;2023-02-25T08:36:37;46.20;42.20;26.40
44933;PMS3003;30667;43.614;1.442;2023-02-25T08:39:02;44.75;41.75;24.75
44933;PMS3003;30667;43.614;1.442;2023-02-25T08:41:28;43.00;38.00;24.00
44933;PMS3003;30667;43.614;1.442;2023-02-25T08:43:54;45.40;39.60;25.20
44933;PMS3003;30667;43.614;1.442;2023-02-25T08:46:25;45.40;41.20;25.60
44933;PMS3003;30667;43.614;1.442;2023-02-25T08:48:52;42.20;36.80;22.80
44933;PMS3003;30667;43.614;1.442;2023-02-25T08:51:19;42.80;41.40;25.80
44933;PMS3003;30667;43.614;1.442;2023-02-25T08:53:45;48.00;40.40;24.20
44933;PMS3003;30667;43.614;1.442;2023-02-25T08:56:11;58.25;46.00;28.75
44933;PMS3003;30667;43.614;1.442;2023-02-25T08:58:38;40.00;38.00;26.60
44933;PMS3003;30667;43.614;1.442;2023-02-25T09:01:08;43.00;36.60;24.00
44933;PMS3003;30667;43.614;1.442;2023-02-25T09:03:37;40.80;37.60;23.20
44933;PMS3003;30667;43.614;1.442;2023-02-25T09:06:15;44.60;36.60;24.60
44933;PMS3003;30667;43.614;1.442;2023-02-25T09:08:40;47.75;41.75;26.75
44933;PMS3003;30667;43.614;1.442;2023-02-25T09:11:06;51.75;42.50;25.50
44933;PMS3003;30667;43.614;1.442;2023-02-25T09:13:31;50.00;44.00;24.25
44933;PMS3003;30667;43.614;1.442;2023-02-25T09:15:57;47.50;38.00;24.00
44933;PMS3003;30667;43.614;1.442;2023-02-25T09:18:23;42.20;36.20;23.20
44933;PMS3003;30667;43.614;1.442;2023-02-25T09:20:49;45.60;38.00;23.40
44933;PMS3003;30667;43.614;1.442;2023-02-25T09:23:15;37.20;33.00;23.20
44933;PMS3003;30667;43.614;1.442;2023-02-25T09:25:40;40.50;36.00;22.75
44933;PMS3003;30667;43.614;1.442;2023-02-25T09:28:08;38.40;36.80;22.00
44933;PMS3003;30667;43.614;1.442;2023-02-25T09:30:34;35.50;33.00;21.00
44933;PMS3003;30667;43.614;1.442;2023-02-25T09:32:59;32.00;30.00;19.50
44933;PMS3003;30667;43.614;1.442;2023-02-25T09:35:24;32.50;28.50;19.00
44933;PMS3003;30667;43.614;1.442;2023-02-25T09:37:50;36.25;35.25;21.50
44933;PMS3003;30667;43.614;1.442;2023-02-25T09:40:16;40.25;37.75;22.00
44933;PMS3003;30667;43.614;1.442;2023-02-25T09:45:32;33.40;33.40;22.00
44933;PMS3003;30667;43.614;1.442;2023-02-25T09:47:59;35.20;30.20;20.40
44933;PMS3003;30667;43.614;1.442;2023-02-25T09:50:35;39.00;35.20;22.00
44933;PMS3003;30667;43.614;1.442;2023-02-25T09:55:39;36.80;30.40;20.20
44933;PMS3003;30667;43.614;1.442;2023-02-25T09:58:13;31.20;30.40;18.60
44933;PMS3003;30667;43.614;1.442;2023-02-25T10:00:48;40.00;35.60;21.40
44933;PMS3003;30667;43.614;1.442;2023-02-25T10:06:06;38.40;34.20;22.60
44933;PMS3003;30667;43.614;1.442;2023-02-25T10:26:15;50.00;39.00;24.20
44933;PMS3003;30667;43.614;1.442;2023-02-25T10:28:46;42.20;39.20;27.00
44933;PMS3003;30667;43.614;1.442;2023-02-25T10:31:17;45.40;38.80;23.20
44933;PMS3003;30667;43.614;1.442;2023-02-25T10:33:46;41.40;37.40;25.80
44933;PMS3003;30667;43.614;1.442;2023-02-25T10:36:30;35.40;33.00;22.60
44933;PMS3003;30667;43.614;1.442;2023-02-25T10:38:58;30.80;28.00;16.00
44933;PMS3003;30667;43.614;1.442;2023-02-25T10:41:24;25.00;22.50;13.50
44933;PMS3003;30667;43.614;1.442;2023-02-25T10:43:51;28.00;23.40;13.00
44933;PMS3003;30667;43.614;1.442;2023-02-25T10:46:21;26.40;21.20;13.00
44933;PMS3003;30667;43.614;1.442;2023-02-25T10:48:56;24.40;21.60;13.60
44933;PMS3003;30667;43.614;1.442;2023-02-25T10:51:24;23.00;21.80;15.00
44933;PMS3003;30667;43.614;1.442;2023-02-25T10:56:16;27.75;25.25;16.50
44933;PMS3003;30667;43.614;1.442;2023-02-25T10:58:43;27.25;26.25;17.25
44933;PMS3003;30667;43.614;1.442;2023-02-25T11:01:22;27.60;26.00;16.00
44933;PMS3003;30667;43.614;1.442;2023-02-25T11:03:52;35.80;29.40;16.60
44933;PMS3003;30667;43.614;1.442;2023-02-25T11:06:29;37.60;26.80;17.40
44933;PMS3003;30667;43.614;1.442;2023-02-25T11:08:57;30.20;28.40;19.20
44933;PMS3003;30667;43.614;1.442;2023-02-25T11:11:26;31.00;28.80;18.00
44933;PMS3003;30667;43.614;1.442;2023-02-25T11:14:00;30.00;25.20;17.00
44933;PMS3003;30667;43.614;1.442;2023-02-25T11:16:40;29.60;29.00;16.40
44933;PMS3003;30667;43.614;1.442;2023-02-25T11:19:11;26.80;26.20;18.20
44933;PMS3003;30667;43.614;1.442;2023-02-25T11:21:57;24.20;21.40;13.20
44933;PMS3003;30667;43.614;1.442;2023-02-25T11:24:34;23.60;20.00;12.80
44933;PMS3003;30667;43.614;1.442;2023-02-25T11:27:02;20.80;20.60;11.00
44933;PMS3003;30667;43.614;1.442;2023-02-25T11:29:31;21.00;20.00;11.00
44933;PMS3003;30667;43.614;1.442;2023-02-25T11:32:05;20.60;19.20;12.40
44933;PMS3003;30667;43.614;1.442;2023-02-25T11:34:33;21.60;19.60;12.80
44933;PMS3003;30667;43.614;1.442;2023-02-25T11:37:39;22.80;19.40;10.40
44933;PMS3003;30667;43.614;1.442;2023-02-25T11:45:30;22.80;19.40;11.00
44933;PMS3003;30667;43.614;1.442;2023-02-25T11:47:58;16.60;16.60;9.80
44933;PMS3003;30667;43.614;1.442;2023-02-25T11:50:27;20.20;19.80;12.80
44933;PMS3003;30667;43.614;1.442;2023-02-25T12:01:01;21.20;17.40;11.00
44933;PMS3003;30667;43.614;1.442;2023-02-25T12:12:27;17.00;17.00;9.60
44933;PMS3003;30667;43.614;1.442;2023-02-25T12:21:17;15.80;15.60;8.00
44933;PMS3003;30667;43.614;1.442;2023-02-25T12:45:26;19.80;17.00;11.20
44933;PMS3003;30667;43.614;1.442;2023-02-25T12:58:24;17.00;15.40;8.00
44933;PMS3003;30667;43.614;1.442;2023-02-25T13:11:56;20.80;16.80;10.40
44933;PMS3003;30667;43.614;1.442;2023-02-25T13:44:29;17.40;16.60;8.80
44933;PMS3003;30667;43.614;1.442;2023-02-25T13:52:51;17.60;16.40;8.60
44933;PMS3003;30667;43.614;1.442;2023-02-25T14:07:00;15.00;14.60;9.80
44933;PMS3003;30667;43.614;1.442;2023-02-25T14:18:06;15.80;14.80;8.00
44933;PMS3003;30667;43.614;1.442;2023-02-25T14:35:45;11.40;10.60;5.00
44933;PMS3003;30667;43.614;1.442;2023-02-25T14:43:42;10.60;10.40;5.60
44933;PMS3003;30667;43.614;1.442;2023-02-25T14:49:13;12.80;12.00;6.60
44933;PMS3003;30667;43.614;1.442;2023-02-25T14:52:07;11.20;11.00;5.80
44933;PMS3003;30667;43.614;1.442;2023-02-25T14:55:23;15.00;11.60;5.00
44933;PMS3003;30667;43.614;1.442;2023-02-25T15:18:18;11.80;9.20;5.00
44933;PMS3003;30667;43.614;1.442;2023-02-25T15:20:36;11.00;11.00;6.60
44933;PMS3003;30667;43.614;1.442;2023-02-25T15:28:00;15.60;13.60;6.00
44933;PMS3003;30667;43.614;1.442;2023-02-25T15:30:26;14.00;14.00;6.00
44933;PMS3003;30667;43.614;1.442;2023-02-25T15:35:58;14.60;12.40;7.00
44933;PMS3003;30667;43.614;1.442;2023-02-25T15:38:39;14.80;13.80;8.00
44933;PMS3003;30667;43.614;1.442;2023-02-25T15:43:51;15.00;15.00;6.80
44933;PMS3003;30667;43.614;1.442;2023-02-25T15:48:44;13.60;13.60;8.20
44933;PMS3003;30667;43.614;1.442;2023-02-25T15:51:43;14.60;12.80;7.60
44933;PMS3003;30667;43.614;1.442;2023-02-25T15:54:09;14.60;11.80;6.60
44933;PMS3003;30667;43.614;1.442;2023-02-25T15:56:59;12.00;11.60;6.80
44933;PMS3003;30667;43.614;1.442;2023-02-25T15:59:45;11.20;10.40;4.40
44933;PMS3003;30667;43.614;1.442;2023-02-25T16:05:01;11.00;9.40;5.00
44933;PMS3003;30667;43.614;1.442;2023-02-25T16:07:34;11.00;11.00;5.00
44933;PMS3003;30667;43.614;1.442;2023-02-25T16:10:07;11.20;10.00;4.40
44933;PMS3003;30667;43.614;1.442;2023-02-25T16:12:43;9.40;8.40;4.40
44933;PMS3003;30667;43.614;1.442;2023-02-25T16:15:20;10.40;9.00;5.00
44933;PMS3003;30667;43.614;1.442;2023-02-25T16:17:56;11.20;10.80;5.00
44933;PMS3003;30667;43.614;1.442;2023-02-25T16:20:37;15.20;11.40;6.40
44933;PMS3003;30667;43.614;1.442;2023-02-25T16:23:11;12.40;10.80;5.00
44933;PMS3003;30667;43.614;1.442;2023-02-25T16:28:36;8.00;8.00;4.60
44933;PMS3003;30667;43.614;1.442;2023-02-25T16:34:19;11.40;10.20;5.00
44933;PMS3003;30667;43.614;1.442;2023-02-25T16:39:33;9.80;9.80;6.60
44933;PMS3003;30667;43.614;1.442;2023-02-25T16:42:11;13.00;12.00;6.00
44933;PMS3003;30667;43.614;1.442;2023-02-25T16:44:38;11.40;11.40;6.00
44933;PMS3003;30667;43.614;1.442;2023-02-25T16:47:19;12.00;10.80;5.00
44933;PMS3003;30667;43.614;1.442;2023-02-25T16:49:50;10.20;9.40;5.00
44933;PMS3003;30667;43.614;1.442;2023-02-25T16:52:40;12.00;10.80;5.40
44933;PMS3003;30667;43.614;1.442;2023-02-25T16:55:36;12.00;11.00;5.40
44933;PMS3003;30667;43.614;1.442;2023-02-25T16:58:04;12.60;12.20;6.80
44933;PMS3003;30667;43.614;1.442;2023-02-25T17:00:30;13.80;10.00;4.80
44933;PMS3003;30667;43.614;1.442;2023-02-25T17:02:58;12.00;11.40;5.80
44933;PMS3003;30667;43.614;1.442;2023-02-25T17:05:28;13.80;12.00;7.40
44933;PMS3003;30667;43.614;1.442;2023-02-25T17:07:59;19.40;15.60;9.00
44933;PMS3003;30667;43.614;1.442;2023-02-25T17:10:30;12.40;11.60;7.00
44933;PMS3003;30667;43.614;1.442;2023-02-25T17:12:59;15.60;15.00;9.00
44933;PMS3003;30667;43.614;1.442;2023-02-25T17:15:31;15.00;12.60;7.80
44933;PMS3003;30667;43.614;1.442;2023-02-25T17:20:43;13.60;12.60;7.00
44933;PMS3003;30667;43.614;1.442;2023-02-25T17:23:11;15.00;14.25;9.00
44933;PMS3003;30667;43.614;1.442;2023-02-25T17:25:40;13.60;13.20;8.00
44933;PMS3003;30667;43.614;1.442;2023-02-25T17:28:08;18.20;16.80;9.00
44933;PMS3003;30667;43.614;1.442;2023-02-25T17:30:44;16.00;15.00;8.80
44933;PMS3003;30667;43.614;1.442;2023-02-25T17:33:21;18.60;14.00;8.60
44933;PMS3003;30667;43.614;1.442;2023-02-25T17:35:50;16.00;14.00;6.60
44933;PMS3003;30667;43.614;1.442;2023-02-25T17:38:19;15.20;14.40;7.80
44933;PMS3003;30667;43.614;1.442;2023-02-25T17:40:47;15.00;13.20;8.80
44933;PMS3003;30667;43.614;1.442;2023-02-25T17:48:24;19.20;14.00;8.00
44933;PMS3003;30667;43.614;1.442;2023-02-25T17:51:11;13.80;12.80;6.00
44933;PMS3003;30667;43.614;1.442;2023-02-25T17:53:47;8.80;8.40;5.00
44933;PMS3003;30667;43.614;1.442;2023-02-25T17:58:58;15.00;14.80;8.00
44933;PMS3003;30667;43.614;1.442;2023-02-25T18:01:28;14.60;12.80;7.60
44933;PMS3003;30667;43.614;1.442;2023-02-25T18:03:56;12.20;11.60;8.00
44933;PMS3003;30667;43.614;1.442;2023-02-25T18:06:45;12.40;12.00;7.00
44933;PMS3003;30667;43.614;1.442;2023-02-25T18:11:59;19.60;17.60;9.80
44933;PMS3003;30667;43.614;1.442;2023-02-25T18:14:32;18.40;17.20;10.80
44933;PMS3003;30667;43.614;1.442;2023-02-25T18:17:01;15.40;15.00;9.60
44933;PMS3003;30667;43.614;1.442;2023-02-25T18:19:46;19.60;17.40;10.60
44933;PMS3003;30667;43.614;1.442;2023-02-25T18:26:08;16.00;15.20;9.00
44933;PMS3003;30667;43.614;1.442;2023-02-25T18:27:55;15.80;14.00;7.40
44933;PMS3003;30667;43.614;1.442;2023-02-25T18:30:22;19.25;16.50;10.25
44933;PMS3003;30667;43.614;1.442;2023-02-25T18:32:50;29.00;26.60;17.60
44933;PMS3003;30667;43.614;1.442;2023-02-25T18:35:16;18.40;16.00;10.20
44933;PMS3003;30667;43.614;1.442;2023-02-25T18:37:43;19.60;18.20;11.40
44933;PMS3003;30667;43.614;1.442;2023-02-25T18:40:14;32.00;30.00;19.60
44933;PMS3003;30667;43.614;1.442;2023-02-25T18:42:41;17.40;17.20;9.00
44933;PMS3003;30667;43.614;1.442;2023-02-25T18:45:12;16.20;14.80;9.00